Time;durP1;ratioP1;P1;durP2;ratioP2;P2;SDS_P1;SDS_P2;PMS_P1;PMS_P2;Temp;Humidity;BMP_temperature;BMP_pressure;BME280_temperature;BME280_humidity;BME280_pressure;Samples;Min_cycle;Max_cycle;Signal;HPM_P1;HPM_P2
2022/09/29 00:02:06;;;;;;;7.53;6.82;;;6.60;99.90;;;;;;5067220;28;20051;-60
2022/09/29 00:04:32;;;;;;;8.57;6.97;;;6.60;99.90;;;;;;5051552;28;20053;-60
2022/09/29 00:06:58;;;;;;;8.20;6.88;;;6.60;99.90;;;;;;5055946;28;20052;-60
2022/09/29 00:09:23;;;;;;;10.25;7.22;;;6.60;99.90;;;;;;5056657;28;20095;-60
2022/09/29 00:11:56;;;;;;;9.30;6.65;;;6.60;99.90;;;;;;5044753;28;20486;-60
2022/09/29 00:14:22;;;;;;;10.93;7.15;;;6.50;99.90;;;;;;5070786;28;20071;-60
2022/09/29 00:16:48;;;;;;;9.60;7.30;;;6.50;99.90;;;;;;5047876;28;20051;-60
2022/09/29 00:19:14;;;;;;;9.07;6.70;;;6.50;99.90;;;;;;5059208;28;20466;-60
2022/09/29 00:21:40;;;;;;;8.10;7.22;;;6.50;99.90;;;;;;5061406;28;20055;-60
2022/09/29 00:24:05;;;;;;;7.38;6.65;;;6.40;99.90;;;;;;5037471;28;20045;-60
2022/09/29 00:26:31;;;;;;;7.55;6.65;;;6.50;99.90;;;;;;5066362;28;20400;-60
2022/09/29 00:28:59;;;;;;;7.00;6.32;;;6.40;99.90;;;;;;5065855;28;20417;-60
2022/09/29 00:31:27;;;;;;;6.50;5.90;;;6.40;99.90;;;;;;5055223;28;20458;-60
2022/09/29 00:33:53;;;;;;;5.95;5.38;;;6.40;99.90;;;;;;5060928;28;20596;-60
2022/09/29 00:36:20;;;;;;;7.60;6.57;;;6.40;99.90;;;;;;5066194;28;20044;-60
2022/09/29 00:38:48;;;;;;;7.53;6.40;;;6.40;99.90;;;;;;5056135;28;20047;-60
2022/09/29 00:41:18;;;;;;;6.60;6.00;;;6.30;99.90;;;;;;5059301;28;20049;-60
2022/09/29 00:44:01;;;;;;;5.20;4.70;;;6.30;99.90;;;;;;5053554;28;20041;-60
2022/09/29 00:46:38;;;;;;;7.68;5.57;;;6.30;99.90;;;;;;5051102;28;20045;-60
2022/09/29 00:49:13;;;;;;;5.63;5.13;;;6.20;99.90;;;;;;5067120;28;20048;-60
2022/09/29 00:51:44;;;;;;;6.35;5.75;;;6.20;99.90;;;;;;5058967;28;20111;-61
2022/09/29 00:54:10;;;;;;;6.10;5.05;;;6.20;99.90;;;;;;5060365;28;20731;-60
2022/09/29 00:56:40;;;;;;;5.18;4.75;;;6.20;99.90;;;;;;5033765;28;20053;-60
2022/09/29 00:59:15;;;;;;;9.95;6.25;;;6.10;99.90;;;;;;5053998;28;20084;-59
2022/09/29 01:01:45;;;;;;;6.70;6.00;;;6.20;99.90;;;;;;5052960;28;20041;-60
2022/09/29 01:04:15;;;;;;;6.22;5.32;;;6.10;99.90;;;;;;5057721;28;20562;-60
2022/09/29 01:06:46;;;;;;;5.43;4.93;;;6.10;99.90;;;;;;5066528;28;20048;-60
2022/09/29 01:09:27;;;;;;;5.68;5.18;;;6.10;99.90;;;;;;5058114;28;20037;-60
2022/09/29 01:11:57;;;;;;;5.20;4.70;;;6.10;99.90;;;;;;5056544;28;20661;-61
2022/09/29 01:14:24;;;;;;;5.00;4.60;;;6.10;99.90;;;;;;5058560;28;20432;-61
2022/09/29 01:16:50;;;;;;;5.53;5.05;;;6.00;99.90;;;;;;5062004;28;20538;-60
2022/09/29 01:19:25;;;;;;;7.82;5.40;;;6.00;99.90;;;;;;5066283;28;20045;-60
2022/09/29 01:22:34;;;;;;;6.40;5.15;;;6.00;99.90;;;;;;5046978;28;20503;-60
2022/09/29 01:25:34;;;;;;;6.43;5.55;;;6.00;99.90;;;;;;5033987;28;20041;-60
2022/09/29 01:28:19;;;;;;;7.05;6.35;;;6.00;99.90;;;;;;5037096;28;20143;-61
2022/09/29 01:31:22;;;;;;;36.70;8.07;;;6.00;99.90;;;;;;5064965;28;20121;-60
2022/09/29 01:34:01;;;;;;;107.00;11.27;;;6.00;99.90;;;;;;5059165;28;20434;-60
2022/09/29 01:36:36;;;;;;;133.32;12.00;;;6.00;99.90;;;;;;5060523;28;20056;-60
2022/09/29 01:39:30;;;;;;;185.45;13.85;;;6.10;99.90;;;;;;5052154;28;20098;-60
2022/09/29 01:42:01;;;;;;;;;;;6.10;99.90;;;;;;5056139;28;20094;-60
2022/09/29 01:44:34;;;;;;;76.97;11.88;;;6.10;99.90;;;;;;5034186;28;19924;-59
2022/09/29 01:47:13;;;;;;;50.90;8.85;;;6.10;99.90;;;;;;5047351;28;20478;-60
2022/09/29 01:49:44;;;;;;;18.15;7.80;;;6.10;99.90;;;;;;5053982;28;20052;-60
2022/09/29 01:52:14;;;;;;;8.13;7.20;;;6.10;99.90;;;;;;5059756;28;20550;-60
2022/09/29 01:55:04;;;;;;;11.98;7.20;;;6.00;99.90;;;;;;5067635;28;20048;-60
2022/09/29 01:57:44;;;;;;;13.30;5.68;;;6.00;99.90;;;;;;5056054;28;20056;-59
2022/09/29 02:00:15;;;;;;;15.27;7.35;;;6.00;99.90;;;;;;5067763;28;20054;-60
2022/09/29 02:02:45;;;;;;;6.20;5.68;;;6.00;99.90;;;;;;5057073;28;20084;-60
2022/09/29 02:05:18;;;;;;;6.70;6.00;;;5.90;99.90;;;;;;5069373;28;20044;-61
2022/09/29 02:07:46;;;;;;;6.88;6.28;;;5.90;99.90;;;;;;5021336;28;20133;-60
2022/09/29 02:10:16;;;;;;;7.22;6.53;;;5.90;99.90;;;;;;5039699;28;20048;-60
2022/09/29 02:12:43;;;;;;;23.55;7.20;;;5.90;99.90;;;;;;5044506;28;20053;-61
2022/09/29 02:15:13;;;;;;;19.05;8.38;;;5.80;99.90;;;;;;5066482;28;20056;-60
2022/09/29 02:17:43;;;;;;;29.67;8.77;;;5.80;99.90;;;;;;5056649;28;20072;-60
2022/09/29 02:20:13;;;;;;;51.38;9.18;;;5.80;99.90;;;;;;5052880;28;20118;-60
2022/09/29 02:22:41;;;;;;;28.27;7.13;;;5.80;99.90;;;;;;5066065;28;20080;-60
2022/09/29 02:25:10;;;;;;;24.30;7.97;;;5.80;99.90;;;;;;5069549;28;20595;-60
2022/09/29 02:27:36;;;;;;;18.52;6.88;;;5.70;99.90;;;;;;5061542;28;20052;-60
2022/09/29 02:30:02;;;;;;;21.38;5.65;;;5.70;99.90;;;;;;5063857;28;20473;-60
2022/09/29 02:32:30;;;;;;;15.02;6.20;;;5.70;99.90;;;;;;5053383;28;20049;-60
2022/09/29 02:34:56;;;;;;;9.90;5.38;;;5.70;99.90;;;;;;5057940;28;20051;-60
2022/09/29 02:37:45;;;;;;;6.32;5.32;;;5.60;99.90;;;;;;5059117;28;20471;-60
2022/09/29 02:40:47;;;;;;;16.77;5.88;;;5.60;99.90;;;;;;5051298;28;20044;-60
2022/09/29 02:43:28;;;;;;;9.05;5.60;;;5.50;99.90;;;;;;5061009;28;20049;-60
2022/09/29 02:46:30;;;;;;;8.00;5.85;;;5.50;99.90;;;;;;5053687;28;20106;-60
2022/09/29 02:49:05;;;;;;;7.22;6.22;;;5.50;99.90;;;;;;5054039;28;20140;-60
2022/09/29 02:51:57;;;;;;;7.13;6.43;;;5.50;99.90;;;;;;5056681;28;20048;-61
2022/09/29 02:54:51;;;;;;;8.13;6.18;;;5.50;99.90;;;;;;5054596;28;20135;-60
2022/09/29 02:57:29;;;;;;;13.77;6.72;;;5.50;99.90;;;;;;5056107;28;20054;-60
2022/09/29 03:00:07;;;;;;;25.63;6.85;;;5.50;99.90;;;;;;5053961;28;20288;-60
2022/09/29 03:02:34;;;;;;;55.72;7.03;;;5.40;99.90;;;;;;5056908;28;20064;-60
2022/09/29 03:05:01;;;;;;;16.20;7.18;;;5.40;99.90;;;;;;5054418;28;20072;-60
2022/09/29 03:07:27;;;;;;;31.13;7.28;;;5.40;99.90;;;;;;5065730;28;20044;-60
2022/09/29 03:09:52;;;;;;;23.70;6.38;;;5.40;99.90;;;;;;5056416;28;20543;-60
2022/09/29 03:12:18;;;;;;;13.57;6.93;;;5.40;99.90;;;;;;5056483;28;20539;-60
2022/09/29 03:14:47;;;;;;;22.30;6.57;;;5.40;99.90;;;;;;5044122;28;20672;-60
2022/09/29 03:17:15;;;;;;;15.68;6.30;;;5.40;99.90;;;;;;5058855;28;20047;-60
2022/09/29 03:19:41;;;;;;;8.57;6.25;;;5.30;99.90;;;;;;5069295;28;20330;-60
2022/09/29 03:22:07;;;;;;;7.53;6.63;;;5.30;99.90;;;;;;5055593;28;20045;-60
2022/09/29 03:24:35;;;;;;;7.07;6.47;;;5.30;99.90;;;;;;5060599;28;20135;-60
2022/09/29 03:27:01;;;;;;;8.02;7.22;;;5.30;99.90;;;;;;5057008;28;20052;-60
2022/09/29 03:29:27;;;;;;;8.77;7.88;;;5.30;99.90;;;;;;5063972;28;20076;-59
2022/09/29 03:31:53;;;;;;;13.75;8.20;;;5.30;99.90;;;;;;5058769;28;20048;-60
2022/09/29 03:34:19;;;;;;;19.60;8.70;;;5.30;99.90;;;;;;5063789;28;20462;-60
2022/09/29 03:36:45;;;;;;;15.88;8.30;;;5.30;99.90;;;;;;5059835;28;20064;-59
2022/09/29 03:39:11;;;;;;;16.05;8.77;;;5.30;99.90;;;;;;5064834;28;20425;-60
2022/09/29 03:41:37;;;;;;;32.42;10.15;;;5.30;99.90;;;;;;5057391;28;20048;-60
2022/09/29 03:44:03;;;;;;;23.10;10.68;;;5.40;99.90;;;;;;5069920;28;20138;-60
2022/09/29 03:46:29;;;;;;;40.42;10.85;;;5.50;99.90;;;;;;5057329;28;20056;-60
2022/09/29 03:48:54;;;;;;;27.20;10.45;;;5.50;99.90;;;;;;5060588;28;20071;-60
2022/09/29 03:51:20;;;;;;;41.47;9.75;;;5.50;99.90;;;;;;5056323;28;20063;-60
2022/09/29 03:53:49;;;;;;;91.65;11.30;;;5.60;99.90;;;;;;5051814;28;20045;-60
2022/09/29 03:56:14;;;;;;;76.35;11.52;;;5.60;99.90;;;;;;5064319;28;20055;-60
2022/09/29 03:58:40;;;;;;;126.20;11.38;;;5.50;99.90;;;;;;5064921;28;20048;-60
2022/09/29 04:01:11;;;;;;;97.53;11.82;;;5.50;99.90;;;;;;5064713;28;20135;-60
2022/09/29 04:03:37;;;;;;;64.82;9.68;;;5.50;99.90;;;;;;5061983;28;20426;-60
2022/09/29 04:06:03;;;;;;;213.57;17.95;;;5.50;99.90;;;;;;5058974;28;20045;-60
2022/09/29 04:08:28;;;;;;;129.07;14.85;;;5.50;99.90;;;;;;5072246;28;20052;-59
2022/09/29 04:10:54;;;;;;;120.47;14.10;;;5.50;99.90;;;;;;5066256;28;20461;-60
2022/09/29 04:13:23;;;;;;;144.65;16.08;;;5.50;99.90;;;;;;5042820;28;20556;-60
2022/09/29 04:15:48;;;;;;;114.93;13.65;;;5.50;99.90;;;;;;5042952;28;20152;-60
2022/09/29 04:18:14;;;;;;;96.43;12.38;;;5.50;99.90;;;;;;5036646;28;20043;-60
2022/09/29 04:20:42;;;;;;;111.30;13.23;;;5.40;99.90;;;;;;5041247;28;20056;-60
2022/09/29 04:23:07;;;;;;;91.07;11.63;;;5.40;99.90;;;;;;5042248;28;20040;-59
2022/09/29 04:25:33;;;;;;;53.15;10.98;;;5.40;99.90;;;;;;5036131;28;20041;-60
2022/09/29 04:27:59;;;;;;;77.53;11.05;;;5.30;99.90;;;;;;5037438;28;20045;-59
2022/09/29 04:30:25;;;;;;;48.15;10.98;;;5.30;99.90;;;;;;5044541;28;20090;-60
2022/09/29 04:32:50;;;;;;;20.45;8.10;;;5.30;99.90;;;;;;5040045;28;20045;-60
2022/09/29 04:35:16;;;;;;;29.65;9.80;;;5.20;99.90;;;;;;5039176;28;20479;-59
2022/09/29 04:37:47;;;;;;;21.92;8.38;;;5.20;99.90;;;;;;5047535;28;20072;-60
2022/09/29 04:40:18;;;;;;;16.25;8.55;;;5.20;99.90;;;;;;5033023;28;20588;-60
2022/09/29 04:42:44;;;;;;;14.45;8.88;;;5.20;99.90;;;;;;5045589;28;20057;-60
2022/09/29 04:45:09;;;;;;;18.08;8.13;;;5.20;99.90;;;;;;5029899;28;20057;-60
2022/09/29 04:47:35;;;;;;;10.85;7.68;;;5.20;99.90;;;;;;5042671;28;20052;-60
2022/09/29 04:50:01;;;;;;;16.90;8.57;;;5.10;99.90;;;;;;5035796;28;20056;-59
2022/09/29 04:52:28;;;;;;;11.43;8.23;;;5.10;99.90;;;;;;5035507;28;20052;-60
2022/09/29 04:54:54;;;;;;;55.88;9.50;;;5.10;99.90;;;;;;5030329;28;20053;-60
2022/09/29 04:57:19;;;;;;;33.53;10.05;;;5.00;99.90;;;;;;5035208;28;20102;-60
2022/09/29 04:59:45;;;;;;;32.35;10.00;;;5.00;99.90;;;;;;5036666;28;20123;-60
2022/09/29 05:02:11;;;;;;;80.80;11.70;;;5.00;99.90;;;;;;5035304;28;20124;-60
2022/09/29 05:04:36;;;;;;;57.63;12.32;;;5.00;99.90;;;;;;5030974;28;20077;-60
2022/09/29 05:07:02;;;;;;;97.25;14.68;;;5.00;99.90;;;;;;5035752;28;20053;-60
2022/09/29 05:09:28;;;;;;;53.72;11.20;;;5.00;99.90;;;;;;5024260;28;20049;-60
2022/09/29 05:11:53;;;;;;;59.70;12.15;;;5.00;99.90;;;;;;5050684;28;20051;-59
2022/09/29 05:14:19;;;;;;;88.07;12.82;;;5.00;99.90;;;;;;5060245;28;20060;-60
2022/09/29 05:16:45;;;;;;;63.05;13.00;;;4.90;99.90;;;;;;5062258;28;20048;-60
2022/09/29 05:19:10;;;;;;;66.18;12.23;;;4.90;99.90;;;;;;5053213;28;20057;-60
2022/09/29 05:21:36;;;;;;;70.60;11.95;;;4.80;99.90;;;;;;5062096;28;20548;-60
2022/09/29 05:24:03;;;;;;;55.03;11.02;;;4.80;99.90;;;;;;5053763;28;20040;-59
2022/09/29 05:26:29;;;;;;;36.97;9.77;;;4.80;99.90;;;;;;5058919;28;20356;-60
2022/09/29 05:28:55;;;;;;;37.28;9.23;;;4.80;99.90;;;;;;5039025;28;20098;-59
2022/09/29 05:31:21;;;;;;;22.25;8.85;;;4.80;99.90;;;;;;5036734;28;20148;-59
2022/09/29 05:33:49;;;;;;;24.90;9.18;;;4.80;99.90;;;;;;5034615;28;20052;-60
2022/09/29 05:36:15;;;;;;;16.65;9.18;;;4.80;99.90;;;;;;5062129;28;20077;-59
2022/09/29 05:38:41;;;;;;;14.77;8.25;;;4.80;99.90;;;;;;5053785;28;20145;-60
2022/09/29 05:41:10;;;;;;;9.43;7.80;;;4.70;99.90;;;;;;5058278;28;20703;-59
2022/09/29 05:43:37;;;;;;;8.95;7.60;;;4.80;99.90;;;;;;5047657;28;20098;-60
2022/09/29 05:46:05;;;;;;;10.32;6.72;;;4.80;99.90;;;;;;5060097;28;20041;-60
2022/09/29 05:48:31;;;;;;;7.38;6.75;;;4.80;99.90;;;;;;5050758;28;20184;-60
2022/09/29 05:50:58;;;;;;;7.25;6.65;;;4.80;99.90;;;;;;5049827;28;20052;-59
2022/09/29 05:53:25;;;;;;;7.45;6.85;;;4.80;99.90;;;;;;5055855;28;20089;-59
2022/09/29 05:55:53;;;;;;;7.20;6.50;;;4.80;99.90;;;;;;5038947;28;20139;-59
2022/09/29 05:58:19;;;;;;;7.55;6.85;;;4.90;99.90;;;;;;5055684;28;20048;-59
2022/09/29 06:00:45;;;;;;;7.50;6.90;;;5.00;99.90;;;;;;5058846;28;20056;-60
2022/09/29 06:03:11;;;;;;;9.73;8.93;;;5.00;99.90;;;;;;5059455;28;20068;-59
2022/09/29 06:05:38;;;;;;;9.60;8.75;;;5.10;99.90;;;;;;5052340;28;20496;-59
2022/09/29 06:08:04;;;;;;;10.45;9.57;;;5.20;99.90;;;;;;5040691;28;20074;-60
2022/09/29 06:10:31;;;;;;;11.27;10.27;;;5.50;99.90;;;;;;5049884;28;20053;-59
2022/09/29 06:12:57;;;;;;;10.50;9.45;;;5.90;99.90;;;;;;5046979;28;20416;-59
2022/09/29 06:15:23;;;;;;;9.20;8.25;;;6.30;99.90;;;;;;5044104;28;20057;-60
2022/09/29 06:18:04;;;;;;;8.73;7.93;;;7.00;99.90;;;;;;5027000;28;20220;-59
2022/09/29 06:20:32;;;;;;;7.20;6.60;;;7.70;99.90;;;;;;5045496;28;20056;-59
2022/09/29 06:22:57;;;;;;;7.75;7.15;;;8.30;99.90;;;;;;5043772;28;20049;-59
2022/09/29 06:25:23;;;;;;;6.43;5.93;;;8.80;99.90;;;;;;5043032;28;20566;-61
2022/09/29 06:27:50;;;;;;;5.75;5.25;;;9.20;99.90;;;;;;5025521;28;20084;-60
2022/09/29 06:30:16;;;;;;;5.82;5.38;;;9.60;99.90;;;;;;5027021;28;20475;-60
2022/09/29 06:32:44;;;;;;;4.95;4.55;;;9.80;99.90;;;;;;5044391;28;20056;-60
2022/09/29 06:38:01;;;;;;;6.03;5.53;;;9.60;99.90;;;;;;5044465;28;20450;-59
2022/09/29 06:40:27;;;;;;;6.50;6.00;;;9.40;99.90;;;;;;5044659;28;20138;-60
2022/09/29 06:42:53;;;;;;;6.80;6.10;;;9.40;99.90;;;;;;5044010;28;20161;-59
2022/09/29 06:45:18;;;;;;;6.93;6.32;;;9.50;99.90;;;;;;5047459;28;20589;-59
2022/09/29 06:47:44;;;;;;;7.18;6.53;;;9.50;99.90;;;;;;5047889;28;20461;-59
2022/09/29 06:50:10;;;;;;;7.65;6.57;;;9.50;99.90;;;;;;5047998;28;20533;-59
2022/09/29 06:52:36;;;;;;;7.45;6.63;;;9.50;99.90;;;;;;5048143;28;20070;-60
2022/09/29 06:55:01;;;;;;;7.18;5.82;;;9.40;99.90;;;;;;5047675;28;20041;-61
2022/09/29 06:57:27;;;;;;;5.55;5.05;;;9.20;99.90;;;;;;5048297;28;20063;-59
2022/09/29 06:59:54;;;;;;;6.93;6.32;;;9.10;99.90;;;;;;5050289;28;20052;-59
2022/09/29 07:02:20;;;;;;;8.98;7.13;;;9.00;99.90;;;;;;5047939;28;20055;-60
2022/09/29 07:04:47;;;;;;;8.73;7.93;;;9.00;99.90;;;;;;5028858;28;20057;-59
2022/09/29 07:07:14;;;;;;;9.00;8.13;;;9.00;99.90;;;;;;5046257;28;20052;-59
2022/09/29 07:09:41;;;;;;;8.40;7.70;;;8.90;99.90;;;;;;5045719;28;20114;-59
2022/09/29 07:12:07;;;;;;;8.48;7.72;;;8.90;99.90;;;;;;5045706;28;20143;-59
2022/09/29 07:14:33;;;;;;;8.07;7.43;;;8.80;99.90;;;;;;5052901;28;20060;-60
2022/09/29 07:16:59;;;;;;;8.80;7.90;;;8.80;99.90;;;;;;5063050;28;20539;-59
2022/09/29 07:19:25;;;;;;;9.77;8.88;;;8.80;99.90;;;;;;5062040;28;20037;-60
2022/09/29 07:21:51;;;;;;;9.30;8.50;;;8.80;99.90;;;;;;5062534;28;20089;-59
2022/09/29 07:24:17;;;;;;;8.95;8.25;;;8.80;99.90;;;;;;5059491;28;20041;-59
2022/09/29 07:26:43;;;;;;;10.57;9.68;;;9.00;99.90;;;;;;5060299;28;20699;-59
2022/09/29 07:29:09;;;;;;;10.93;9.98;;;9.10;99.90;;;;;;5060995;28;20088;-60
2022/09/29 07:31:35;;;;;;;10.40;9.50;;;9.20;99.90;;;;;;5063862;28;20380;-60
2022/09/29 07:34:09;;;;;;;11.13;9.63;;;9.30;99.90;;;;;;5062940;28;20047;-59
2022/09/29 07:36:37;;;;;;;10.23;9.40;;;9.50;99.90;;;;;;5046823;28;20522;-60
2022/09/29 07:39:04;;;;;;;11.68;10.02;;;9.70;99.90;;;;;;5063303;28;20411;-60
2022/09/29 07:41:29;;;;;;;9.68;8.88;;;9.80;99.90;;;;;;5061389;28;20075;-60
2022/09/29 07:43:55;;;;;;;10.15;9.27;;;9.90;99.90;;;;;;5066598;28;20139;-60
2022/09/29 07:46:21;;;;;;;11.10;10.10;;;10.10;99.90;;;;;;5063364;28;20044;-59
2022/09/29 07:48:46;;;;;;;11.82;10.73;;;10.20;99.90;;;;;;5062163;28;20352;-60
2022/09/29 07:51:15;;;;;;;12.27;11.07;;;10.30;99.90;;;;;;5064195;28;20044;-60
2022/09/29 07:53:41;;;;;;;10.80;9.68;;;10.40;99.90;;;;;;5067060;28;20055;-59
2022/09/29 07:56:13;;;;;;;11.48;10.20;;;10.50;99.90;;;;;;5058094;28;20049;-60
2022/09/29 07:58:39;;;;;;;10.73;9.73;;;10.60;99.90;;;;;;5062624;28;20538;-60
2022/09/29 08:01:09;;;;;;;11.57;10.35;;;10.70;99.90;;;;;;5061180;28;20436;-60
2022/09/29 08:03:36;;;;;;;12.20;11.00;;;10.80;99.90;;;;;;5063877;28;20052;-60
2022/09/29 08:06:03;;;;;;;11.55;10.50;;;10.90;99.90;;;;;;5039932;28;20056;-60
2022/09/29 08:08:28;;;;;;;11.68;10.57;;;11.00;99.90;;;;;;5062022;28;20507;-60
2022/09/29 08:11:23;;;;;;;12.25;10.90;;;11.10;99.90;;;;;;5063216;28;20147;-59
2022/09/29 08:13:52;;;;;;;13.63;12.20;;;11.20;99.90;;;;;;4967534;28;20061;-60
2022/09/29 08:16:18;;;;;;;13.20;11.98;;;11.40;99.90;;;;;;4986319;28;20145;-60
2022/09/29 08:18:43;;;;;;;12.57;11.38;;;11.50;99.90;;;;;;4967481;28;20970;-61
2022/09/29 08:21:11;;;;;;;13.23;12.02;;;11.50;99.90;;;;;;4979832;28;20045;-60
2022/09/29 08:23:39;;;;;;;15.05;13.65;;;11.60;99.90;;;;;;4975720;28;20102;-61
2022/09/29 08:26:13;;;;;;;13.20;12.00;;;11.70;99.90;;;;;;4988326;28;20560;-60
2022/09/29 08:28:40;;;;;;;14.80;13.43;;;11.70;99.90;;;;;;4983474;28;20050;-60
2022/09/29 08:31:09;;;;;;;15.10;13.43;;;11.70;99.90;;;;;;4979807;28;20094;-60
2022/09/29 08:33:41;;;;;;;14.15;12.80;;;11.80;99.90;;;;;;4979247;28;20505;-60
2022/09/29 08:36:13;;;;;;;13.48;12.20;;;11.90;99.90;;;;;;4981951;28;20058;-60
2022/09/29 08:38:46;;;;;;;17.30;13.33;;;11.90;99.90;;;;;;4965348;28;20545;-60
2022/09/29 08:41:35;;;;;;;13.27;12.07;;;12.10;99.90;;;;;;4962102;28;20054;-60
2022/09/29 08:44:23;;;;;;;14.82;13.15;;;12.10;99.90;;;;;;4923382;29;20098;-61
2022/09/29 08:47:02;;;;;;;14.48;12.68;;;12.20;99.90;;;;;;4917246;29;20060;-60
2022/09/29 08:49:34;;;;;;;15.10;13.60;;;12.20;99.90;;;;;;4926775;29;20426;-60
2022/09/29 08:52:15;;;;;;;16.13;13.27;;;12.30;99.90;;;;;;4942743;28;20057;-60
2022/09/29 08:54:43;;;;;;;15.02;13.35;;;12.40;99.90;;;;;;4962505;28;20059;-60
2022/09/29 08:57:19;;;;;;;14.20;12.90;;;12.50;99.90;;;;;;4962914;28;20054;-61
2022/09/29 08:59:56;;;;;;;15.05;12.68;;;12.60;99.90;;;;;;4956732;28;20128;-61
2022/09/29 09:02:51;;;;;;;16.63;14.82;;;12.70;99.90;;;;;;4962120;28;20161;-61
2022/09/29 09:05:54;;;;;;;15.50;13.95;;;12.80;99.90;;;;;;4946250;28;20122;-61
2022/09/29 09:08:41;;;;;;;15.40;13.90;;;12.90;99.90;;;;;;4963097;28;20070;-61
2022/09/29 09:11:26;;;;;;;15.55;13.95;;;13.00;99.90;;;;;;4958563;28;20134;-61
2022/09/29 09:14:06;;;;;;;16.48;14.63;;;13.10;99.90;;;;;;4961775;28;20061;-61
2022/09/29 09:16:38;;;;;;;14.30;12.95;;;13.30;99.90;;;;;;4962104;28;20113;-61
2022/09/29 09:19:32;;;;;;;14.55;13.02;;;13.40;99.90;;;;;;4958083;28;20083;-61
2022/09/29 09:22:25;;;;;;;13.23;10.77;;;13.50;99.90;;;;;;5045161;28;20061;-61
2022/09/29 09:25:06;;;;;;;13.30;11.80;;;13.60;99.90;;;;;;5052633;28;20045;-61
2022/09/29 09:27:46;;;;;;;11.68;10.48;;;13.70;99.90;;;;;;5036393;28;20118;-60
2022/09/29 09:30:19;;;;;;;13.45;10.80;;;13.80;99.90;;;;;;5061365;28;20565;-61
2022/09/29 09:33:01;;;;;;;12.98;10.20;;;13.80;99.90;;;;;;5061821;28;20081;-62
2022/09/29 09:35:38;;;;;;;12.60;11.40;;;13.80;99.90;;;;;;5021951;28;20265;-64
2022/09/29 09:38:16;;;;;;;13.75;10.05;;;14.00;99.90;;;;;;5052347;28;20077;-61
2022/09/29 09:40:46;;;;;;;10.43;9.43;;;13.90;99.90;;;;;;5055778;28;20049;-61
2022/09/29 09:43:32;;;;;;;11.85;9.35;;;14.10;99.90;;;;;;5035768;28;20063;-61
2022/09/29 09:46:06;;;;;;;11.55;9.80;;;14.20;99.90;;;;;;5046732;28;20079;-61
2022/09/29 09:48:52;;;;;;;9.45;8.55;;;14.30;99.90;;;;;;5042101;28;20056;-61
2022/09/29 09:51:42;;;;;;;10.18;7.55;;;14.40;99.90;;;;;;5036696;28;20060;-61
2022/09/29 09:54:18;;;;;;;8.30;7.45;;;14.40;99.90;;;;;;5063702;28;20051;-61
2022/09/29 09:57:15;;;;;;;8.77;7.97;;;14.40;99.90;;;;;;5052828;28;20114;-62
2022/09/29 10:00:08;;;;;;;5.57;4.35;;;14.40;99.90;;;;;;5055929;28;20415;-63
2022/09/29 10:02:48;;;;;;;6.18;5.10;;;14.40;99.90;;;;;;5055414;28;20052;-61
2022/09/29 10:05:23;;;;;;;5.15;4.32;;;14.40;99.90;;;;;;5046715;28;20036;-62
2022/09/29 10:08:10;;;;;;;5.82;4.90;;;14.40;99.90;;;;;;5017152;28;21323;-62
2022/09/29 10:10:35;;;;;;;6.00;5.15;;;14.40;99.90;;;;;;5021693;28;20427;-62
2022/09/29 10:13:14;;;;;;;7.53;6.40;;;14.40;99.90;;;;;;5023950;28;20053;-62
2022/09/29 10:15:40;;;;;;;10.93;7.60;;;14.50;99.90;;;;;;5016735;28;20580;-62
2022/09/29 10:18:16;;;;;;;7.25;6.55;;;14.70;99.90;;;;;;5025749;28;20053;-62
2022/09/29 10:20:43;;;;;;;6.57;5.95;;;14.70;99.90;;;;;;5018019;28;20061;-63
2022/09/29 10:23:27;;;;;;;7.00;6.40;;;14.80;99.90;;;;;;5023858;28;20132;-62
2022/09/29 10:26:11;;;;;;;7.30;6.60;;;14.80;99.90;;;;;;5025093;28;20068;-62
2022/09/29 10:29:18;;;;;;;8.38;5.38;;;14.90;99.90;;;;;;5024520;28;20061;-62
2022/09/29 10:32:04;;;;;;;8.57;5.93;;;15.00;99.90;;;;;;4988457;28;20066;-62
2022/09/29 10:34:43;;;;;;;6.20;4.75;;;15.00;99.90;;;;;;5004189;28;20127;-62
2022/09/29 10:37:35;;;;;;;5.25;4.35;;;15.10;99.90;;;;;;5004054;28;20109;-62
2022/09/29 10:40:16;;;;;;;5.03;4.53;;;15.30;99.90;;;;;;5003696;28;20193;-62
2022/09/29 10:42:49;;;;;;;6.28;5.03;;;15.30;99.90;;;;;;5011948;28;20057;-62
2022/09/29 10:45:24;;;;;;;5.97;5.28;;;15.40;99.90;;;;;;4999917;28;20136;-62
2022/09/29 10:47:56;;;;;;;4.95;4.25;;;15.30;99.90;;;;;;4998162;28;20073;-62
2022/09/29 10:50:28;;;;;;;6.15;5.00;;;15.10;99.90;;;;;;5000624;28;20089;-63
2022/09/29 10:53:03;;;;;;;5.82;4.47;;;15.00;99.90;;;;;;5003948;28;20046;-62
2022/09/29 10:55:35;;;;;;;5.85;4.30;;;15.10;99.90;;;;;;5003444;28;20076;-62
2022/09/29 10:58:18;;;;;;;3.50;3.17;;;15.20;99.90;;;;;;4988626;28;20500;-63
2022/09/29 11:01:12;;;;;;;4.53;3.47;;;14.90;99.90;;;;;;4993209;28;20160;-62
2022/09/29 11:03:47;;;;;;;4.05;3.38;;;14.80;99.90;;;;;;4999865;28;20049;-62
2022/09/29 11:06:15;;;;;;;3.80;3.20;;;14.80;99.90;;;;;;4988522;28;20084;-62
2022/09/29 11:09:03;;;;;;;4.25;3.60;;;14.90;99.90;;;;;;5024118;28;20107;-63
2022/09/29 11:11:34;;;;;;;4.20;3.78;;;14.90;99.90;;;;;;5047388;28;20049;-65
2022/09/29 11:14:00;;;;;;;4.13;3.42;;;15.10;99.90;;;;;;5051310;28;20045;-63
2022/09/29 11:16:36;;;;;;;4.05;3.47;;;15.30;99.90;;;;;;5063049;28;20089;-63
2022/09/29 11:19:13;;;;;;;8.20;3.60;;;15.40;99.90;;;;;;5047763;28;20052;-63
2022/09/29 11:21:45;;;;;;;3.63;2.92;;;15.40;99.90;;;;;;5053176;28;20056;-64
2022/09/29 11:24:39;;;;;;;3.30;2.50;;;15.60;99.90;;;;;;5043308;28;20103;-63
2022/09/29 11:27:24;;;;;;;5.05;2.60;;;15.60;99.90;;;;;;5052645;28;20049;-63
2022/09/29 11:30:14;;;;;;;3.90;3.50;;;15.70;99.90;;;;;;5062794;28;20059;-63
2022/09/29 11:32:47;;;;;;;3.33;2.63;;;15.80;99.90;;;;;;5050834;28;20052;-63
2022/09/29 11:35:39;;;;;;;2.72;2.13;;;15.90;99.90;;;;;;5042444;28;20045;-63
2022/09/29 11:38:15;;;;;;;2.65;2.30;;;16.00;99.90;;;;;;5056623;28;20056;-63
2022/09/29 11:41:15;;;;;;;3.58;2.20;;;16.10;99.90;;;;;;5043897;28;20044;-63
2022/09/29 11:44:01;;;;;;;2.47;2.13;;;16.20;99.90;;;;;;5058288;28;20459;-64
2022/09/29 11:46:49;;;;;;;3.22;1.92;;;16.30;99.90;;;;;;5032092;28;20040;-64
2022/09/29 11:49:37;;;;;;;3.95;1.90;;;16.30;99.90;;;;;;5033560;28;20726;-64
2022/09/29 11:52:31;;;;;;;2.38;1.60;;;16.20;99.90;;;;;;5063206;28;20109;-65
2022/09/29 11:55:37;;;;;;;2.55;1.70;;;16.30;99.90;;;;;;5059876;28;20560;-63
2022/09/29 11:58:34;;;;;;;1.50;1.13;;;16.30;99.90;;;;;;5019589;28;20136;-63
2022/09/29 12:01:14;;;;;;;2.53;1.55;;;16.30;99.90;;;;;;5021596;28;20052;-64
2022/09/29 12:04:29;;;;;;;2.30;1.90;;;16.30;99.90;;;;;;5013771;28;20118;-64
2022/09/29 12:07:05;;;;;;;3.28;2.17;;;16.40;99.90;;;;;;5027770;28;20052;-64
2022/09/29 12:09:40;;;;;;;4.57;2.13;;;16.50;99.90;;;;;;5015509;28;20580;-65
2022/09/29 12:12:13;;;;;;;3.05;1.90;;;16.40;99.90;;;;;;5010202;28;20599;-64
2022/09/29 12:14:59;;;;;;;4.65;1.95;;;16.50;99.90;;;;;;5003497;28;20998;-65
2022/09/29 12:17:30;;;;;;;2.97;1.92;;;16.40;99.90;;;;;;5008475;28;20058;-65
2022/09/29 12:20:04;;;;;;;3.22;2.00;;;16.50;99.90;;;;;;5022156;28;20057;-64
2022/09/29 12:22:34;;;;;;;2.78;1.48;;;16.40;99.90;;;;;;4998065;28;20595;-66
2022/09/29 12:25:01;;;;;;;3.33;1.50;;;16.50;99.90;;;;;;5022130;28;20139;-66
2022/09/29 12:27:38;;;;;;;3.55;1.80;;;16.60;99.90;;;;;;5043376;28;20479;-65
2022/09/29 12:30:23;;;;;;;3.45;2.75;;;16.50;99.90;;;;;;5029254;28;20057;-64
2022/09/29 12:32:56;;;;;;;2.80;1.63;;;16.50;99.90;;;;;;5022081;28;20416;-65
2022/09/29 12:35:33;;;;;;;;;;;16.40;99.90;;;;;;5025836;28;20060;-64
2022/09/29 12:38:30;;;;;;;3.58;2.33;;;16.50;99.90;;;;;;5035590;28;19924;-64
2022/09/29 12:41:15;;;;;;;4.68;2.80;;;16.50;99.90;;;;;;5038211;28;20411;-64
2022/09/29 12:43:56;;;;;;;3.40;2.78;;;16.60;99.90;;;;;;5033076;28;20822;-64
2022/09/29 12:46:52;;;;;;;4.25;2.83;;;16.60;99.90;;;;;;5047097;28;20507;-64
2022/09/29 12:49:28;;;;;;;4.75;3.00;;;16.70;99.90;;;;;;5036996;28;20045;-63
2022/09/29 12:51:55;;;;;;;3.90;2.75;;;16.60;99.90;;;;;;5041748;28;20063;-64
2022/09/29 12:54:40;;;;;;;4.72;3.38;;;16.50;99.90;;;;;;5045725;28;20052;-64
2022/09/29 12:57:20;;;;;;;6.18;3.03;;;16.50;99.90;;;;;;5050019;28;20098;-64
2022/09/29 13:00:01;;;;;;;4.35;3.30;;;16.40;99.90;;;;;;5044597;28;20049;-64
2022/09/29 13:02:46;;;;;;;4.90;2.80;;;16.30;99.90;;;;;;5039707;28;20064;-64
2022/09/29 13:05:34;;;;;;;3.63;3.15;;;16.30;99.90;;;;;;5041062;28;20045;-64
2022/09/29 13:08:22;;;;;;;4.85;3.53;;;16.30;99.90;;;;;;5042008;28;20057;-64
2022/09/29 13:11:06;;;;;;;4.30;3.22;;;16.30;99.90;;;;;;5030215;28;20128;-63
2022/09/29 13:13:54;;;;;;;3.97;3.10;;;16.30;99.90;;;;;;5054645;28;20445;-64
2022/09/29 13:16:58;;;;;;;4.28;2.47;;;16.40;99.90;;;;;;5054342;28;20550;-64
2022/09/29 13:19:43;;;;;;;4.30;2.53;;;16.50;99.90;;;;;;4953296;28;20062;-63
2022/09/29 13:22:41;;;;;;;3.50;2.30;;;16.40;99.90;;;;;;4946426;28;20129;-64